Time;durP1;ratioP1;P1;durP2;ratioP2;P2;SDS_P1;SDS_P2;PMS_P1;PMS_P2;Temp;Humidity;BMP_temperature;BMP_pressure;BME280_temperature;BME280_humidity;BME280_pressure;Samples;Min_cycle;Max_cycle;Signal;HPM_P1;HPM_P2
2024/01/24 00:01:42;;;;;;;170.65;92.50;;;;;;;-0.66;75.33;98856.66;10285999;28;20145;-56
2024/01/24 00:06:41;;;;;;;153.35;83.07;;;;;;;-0.71;75.55;98836.00;10285700;28;20061;-55
2024/01/24 00:11:40;;;;;;;145.15;79.38;;;;;;;-0.54;74.93;98859.06;10267459;28;20048;-55
2024/01/24 00:16:40;;;;;;;113.07;62.70;;;;;;;-3.29;74.70;98435.06;10285291;28;20066;-55
2024/01/24 00:21:38;;;;;;;;;;;;;;;-0.54;75.46;98879.47;10286033;28;20057;-55
2024/01/24 00:26:38;;;;;;;119.70;63.78;;;;;;;-0.42;75.16;98888.72;10284860;28;19914;-55
2024/01/24 00:31:37;;;;;;;;;;;;;;;-0.35;75.30;98894.22;10285359;28;20069;-55
2024/01/24 00:36:35;;;;;;;98.88;53.55;;;;;;;-0.45;75.01;98857.94;10284846;28;19999;-56
2024/01/24 00:41:34;;;;;;;87.25;51.15;;;;;;;-0.38;74.93;98866.84;10284770;28;20018;-56
2024/01/24 00:46:33;;;;;;;105.28;55.60;;;;;;;-0.41;75.02;98867.56;10284578;28;20028;-56
2024/01/24 00:51:32;;;;;;;163.25;85.47;;;;;;;-0.38;75.33;98862.63;10284365;28;20105;-55
2024/01/24 00:56:31;;;;;;;122.18;65.50;;;;;;;-0.29;74.52;98875.06;10284068;28;20554;-56
2024/01/24 01:01:30;;;;;;;82.15;46.20;;;;;;;-0.79;75.49;98857.56;10283011;28;20477;-55
2024/01/24 01:06:29;;;;;;;83.00;48.13;;;;;;;-0.80;75.39;98846.50;10265669;28;20124;-55
2024/01/24 01:11:29;;;;;;;88.97;47.08;;;;;;;-0.46;75.99;98898.66;10283523;28;20053;-55
2024/01/24 01:16:28;;;;;;;86.70;48.90;;;;;;;-0.44;74.86;98892.88;10283075;28;20026;-55
2024/01/24 01:21:27;;;;;;;78.13;43.72;;;;;;;-0.52;75.20;98868.56;10283251;28;20112;-55
2024/01/24 01:26:26;;;;;;;83.93;45.35;;;;;;;-0.38;74.61;98872.81;10283689;28;20144;-56
2024/01/24 01:31:25;;;;;;;95.00;51.15;;;;;;;-0.65;75.26;98854.22;10283157;28;20044;-55
2024/01/24 01:36:24;;;;;;;106.38;60.42;;;;;;;-0.72;75.70;98808.75;10282471;28;20072;-55
2024/01/24 01:41:24;;;;;;;127.47;72.72;;;;;;;-0.39;76.10;98852.34;10283180;28;20116;-56
2024/01/24 01:46:25;;;;;;;128.02;71.28;;;;;;;-0.55;76.02;98802.13;10264520;28;20073;-56
2024/01/24 01:51:25;;;;;;;125.57;69.95;;;;;;;-0.58;75.79;98776.41;10282583;28;20073;-56
2024/01/24 01:56:25;;;;;;;139.88;78.00;;;;;;;-0.05;76.01;98852.66;10283059;28;20061;-56
2024/01/24 02:01:24;;;;;;;132.20;74.70;;;;;;;-0.21;75.39;98850.00;10282641;28;20455;-55
2024/01/24 02:06:23;;;;;;;131.30;73.35;;;;;;;-0.27;76.04;98811.41;10281343;28;20171;-56
2024/01/24 02:11:22;;;;;;;129.18;73.53;;;;;;;-0.32;76.44;98835.72;10282674;28;20483;-56
2024/01/24 02:16:21;;;;;;;93.88;53.80;;;;;;;-0.48;76.32;98845.03;10281798;28;20029;-55
2024/01/24 02:21:20;;;;;;;97.60;57.03;;;;;;;-0.96;77.38;98831.06;10282067;28;20387;-56
2024/01/24 02:26:19;;;;;;;87.85;47.40;;;;;;;-0.80;77.21;98833.75;10282317;28;20104;-56
2024/01/24 02:31:19;;;;;;;80.45;45.10;;;;;;;-1.37;78.44;98768.28;10281972;28;20041;-56
2024/01/24 02:36:18;;;;;;;71.10;41.45;;;;;;;-1.29;78.01;98801.84;10280572;28;20092;-56
2024/01/24 02:41:19;;;;;;;92.22;46.50;;;;;;;-1.02;77.33;98835.81;10281970;28;20048;-56
2024/01/24 02:46:18;;;;;;;74.60;41.92;;;;;;;-0.81;77.17;98839.66;10279418;28;20510;-56
2024/01/24 02:51:26;;;;;;;80.10;45.95;;;;;;;-0.84;77.03;98801.25;10285248;28;20456;-56
2024/01/24 02:56:25;;;;;;;73.03;43.28;;;;;;;-0.91;77.58;98804.19;10288989;28;20053;-55
2024/01/24 03:01:24;;;;;;;81.68;44.85;;;;;;;-1.09;76.88;98754.69;10288784;28;20030;-56
2024/01/24 03:06:23;;;;;;;80.72;42.22;;;;;;;-0.74;77.38;98837.47;10288150;28;20048;-56
2024/01/24 03:11:25;;;;;;;81.65;46.65;;;;;;;-0.71;77.30;98843.63;10288652;28;20804;-56
2024/01/24 03:16:24;;;;;;;77.88;45.63;;;;;;;-1.16;76.77;98740.72;10287680;28;20069;-56
2024/01/24 03:21:23;;;;;;;86.68;48.40;;;;;;;-0.50;77.83;98830.44;10287619;28;20026;-56
2024/01/24 03:26:22;;;;;;;104.22;54.33;;;;;;;-0.53;77.38;98798.00;10287192;28;20034;-56
2024/01/24 03:31:21;;;;;;;105.85;57.90;;;;;;;-0.42;76.98;98819.88;10287441;28;20040;-56
2024/01/24 03:36:20;;;;;;;119.72;65.35;;;;;;;-0.77;76.90;98745.53;10287429;28;20030;-56
2024/01/24 03:41:19;;;;;;;111.50;62.05;;;;;;;-0.66;77.95;98792.94;10287181;28;20125;-56
2024/01/24 03:46:19;;;;;;;96.32;56.53;;;;;;;-0.79;78.38;98821.88;10286396;28;20026;-56
2024/01/24 03:51:18;;;;;;;70.03;39.13;;;;;;;-1.30;77.66;98746.63;10268280;28;20730;-56
2024/01/24 03:56:17;;;;;;;69.22;40.13;;;;;;;-0.88;78.38;98834.97;10286980;28;20852;-56
2024/01/24 04:01:16;;;;;;;74.03;40.00;;;;;;;-0.78;78.23;98835.53;10286067;28;20140;-56
2024/01/24 04:06:15;;;;;;;71.25;40.05;;;;;;;-0.93;77.79;98759.94;10286079;28;20784;-56
2024/01/24 04:11:14;;;;;;;76.90;42.88;;;;;;;-0.58;77.64;98786.63;10286147;28;20674;-57
2024/01/24 04:16:13;;;;;;;77.40;44.22;;;;;;;-0.43;76.76;98802.84;10285616;28;20032;-54
2024/01/24 04:21:12;;;;;;;82.60;47.65;;;;;;;-0.32;76.52;98830.63;10285195;28;20040;-55
2024/01/24 04:26:12;;;;;;;88.65;50.40;;;;;;;-0.31;76.41;98833.28;10284589;28;20553;-56
2024/01/24 04:31:11;;;;;;;93.97;53.40;;;;;;;-0.78;77.29;98776.94;10284183;28;20062;-55
2024/01/24 04:36:10;;;;;;;112.57;59.80;;;;;;;-0.51;77.50;98836.31;10284589;28;20097;-55
2024/01/24 04:41:09;;;;;;;140.15;69.63;;;;;;;-0.34;77.69;98855.19;10284752;28;20034;-55
2024/01/24 04:46:15;;;;;;;130.90;67.80;;;;;;;-0.36;77.47;98839.78;10283678;28;20065;-55
2024/01/24 04:51:14;;;;;;;134.63;74.88;;;;;;;-0.11;77.71;98888.03;10283400;28;20069;-55
2024/01/24 04:56:14;;;;;;;158.85;81.63;;;;;;;-0.31;77.56;98878.31;10283021;28;20392;-55
2024/01/24 05:01:12;;;;;;;150.63;80.95;;;;;;;-0.77;77.68;98792.28;10284146;28;20065;-55
2024/01/24 05:06:12;;;;;;;126.32;71.97;;;;;;;-0.40;77.59;98825.94;10283495;28;20125;-55
2024/01/24 05:11:10;;;;;;;;;;;;;;;0.08;77.76;98879.78;10283659;28;20502;-55
2024/01/24 05:16:09;;;;;;;124.10;66.38;;;;;;;-0.03;77.30;98843.41;10283449;28;20665;-58
2024/01/24 05:21:08;;;;;;;118.15;65.82;;;;;;;-0.30;77.53;98796.75;10283033;28;20193;-56
2024/01/24 05:26:07;;;;;;;108.15;65.20;;;;;;;0.09;77.36;98865.34;10293385;28;20287;-56
2024/01/24 05:31:09;;;;;;;136.40;78.05;;;;;;;-0.99;77.03;98690.75;10324118;28;20032;-56
2024/01/24 05:36:09;;;;;;;154.65;81.95;;;;;;;-0.03;77.78;98893.56;10323431;28;20072;-56
2024/01/24 05:41:09;;;;;;;186.57;103.13;;;;;;;-1.59;78.16;98648.09;10323075;28;20060;-56
2024/01/24 05:46:08;;;;;;;157.90;91.28;;;;;;;-0.26;78.12;98861.59;10320374;28;20064;-56
2024/01/24 05:51:07;;;;;;;139.75;78.43;;;;;;;-0.02;77.87;98882.56;10319252;28;20072;-57
2024/01/24 05:56:06;;;;;;;121.30;65.30;;;;;;;0.03;77.77;98856.53;10322152;28;20096;-56
2024/01/24 06:01:08;;;;;;;112.88;64.22;;;;;;;-0.00;77.69;98868.22;10321830;28;20029;-56
2024/01/24 06:06:07;;;;;;;104.28;60.42;;;;;;;-0.18;77.46;98833.22;10320598;28;20069;-56
2024/01/24 06:11:06;;;;;;;114.75;64.60;;;;;;;0.10;76.75;98887.50;10322141;28;20366;-56
2024/01/24 06:16:06;;;;;;;88.05;51.15;;;;;;;-0.11;77.50;98893.13;10320925;28;20542;-56
2024/01/24 06:21:05;;;;;;;97.57;51.80;;;;;;;-0.35;76.43;98869.56;10320902;28;20061;-56
2024/01/24 06:26:04;;;;;;;90.78;50.35;;;;;;;-0.43;77.36;98883.56;10326920;28;20064;-58
2024/01/24 06:31:03;;;;;;;93.38;50.80;;;;;;;-0.38;76.11;98888.13;10329935;28;20064;-56
2024/01/24 06:36:02;;;;;;;88.10;49.33;;;;;;;-1.52;76.11;98704.56;10329864;28;20064;-56
2024/01/24 06:41:01;;;;;;;76.30;43.60;;;;;;;-0.47;76.53;98902.88;10325660;28;20049;-56
2024/01/24 06:46:02;;;;;;;67.95;41.33;;;;;;;-0.44;77.04;98892.88;10324558;28;20104;-56
2024/01/24 06:51:01;;;;;;;70.75;43.63;;;;;;;-0.46;76.75;98876.59;10308418;28;20175;-56
2024/01/24 06:56:00;;;;;;;76.07;42.63;;;;;;;-0.43;77.19;98853.81;10315318;28;20056;-56
2024/01/24 07:00:59;;;;;;;75.18;46.47;;;;;;;-0.89;76.17;98761.84;10324896;28;20032;-56
2024/01/24 07:05:58;;;;;;;87.70;52.80;;;;;;;0.07;75.56;98888.22;10333184;28;20046;-55
2024/01/24 07:10:57;;;;;;;99.18;56.15;;;;;;;-0.00;75.34;98875.88;10334428;28;20065;-56
2024/01/24 07:15:56;;;;;;;99.07;56.88;;;;;;;-0.16;74.92;98844.38;10354827;28;20041;-56
2024/01/24 07:20:55;;;;;;;93.60;54.75;;;;;;;-0.24;74.84;98842.16;10336416;28;20432;-56
2024/01/24 07:25:54;;;;;;;112.13;65.80;;;;;;;-0.19;74.72;98869.69;10332911;28;20505;-56
2024/01/24 07:30:53;;;;;;;110.43;67.53;;;;;;;-0.09;74.76;98881.31;10316591;28;20037;-56
2024/01/24 07:35:52;;;;;;;116.60;70.93;;;;;;;0.02;74.80;98900.69;10315777;28;20022;-56
2024/01/24 07:40:51;;;;;;;129.65;72.78;;;;;;;-0.05;74.78;98872.19;10326267;28;20494;-56
2024/01/24 07:45:50;;;;;;;132.50;74.15;;;;;;;0.12;74.58;98914.00;10348109;28;20748;-57
2024/01/24 07:50:49;;;;;;;;;;;;;;;0.37;74.79;98929.97;10315814;28;20447;-57
2024/01/24 07:55:48;;;;;;;138.88;75.90;;;;;;;-0.01;73.82;98846.94;10308018;28;20436;-57
2024/01/24 08:00:47;;;;;;;132.18;76.25;;;;;;;0.35;73.29;98893.25;10311283;28;20409;-56
2024/01/24 08:05:46;;;;;;;155.43;92.45;;;;;;;0.66;72.50;98917.97;10305599;28;21948;-57
2024/01/24 08:10:45;;;;;;;156.55;93.75;;;;;;;0.74;72.79;98924.41;10316492;28;20057;-56
2024/01/24 08:15:46;;;;;;;136.57;77.32;;;;;;;0.72;71.73;98894.47;10316633;28;20401;-56
2024/01/24 08:20:45;;;;;;;80.97;49.13;;;;;;;0.92;70.98;98946.66;10336771;28;20078;-56
2024/01/24 08:25:44;;;;;;;76.25;43.97;;;;;;;0.48;69.70;98866.75;10335067;28;20104;-57
2024/01/24 08:30:43;;;;;;;82.13;47.67;;;;;;;0.75;70.33;98904.84;10337672;28;22621;-56
2024/01/24 08:35:42;;;;;;;85.28;49.88;;;;;;;1.26;70.57;98924.72;10318663;28;20080;-56
2024/01/24 08:40:41;;;;;;;98.93;57.47;;;;;;;1.03;69.45;98884.25;10335374;28;20068;-56
2024/01/24 08:45:40;;;;;;;95.00;58.90;;;;;;;0.65;68.67;98789.38;10322954;28;20072;-56
2024/01/24 08:50:40;;;;;;;94.90;55.72;;;;;;;1.56;68.06;98904.16;10316418;28;20415;-56
2024/01/24 08:55:38;;;;;;;;;;;;;;;1.67;67.80;98894.47;10320283;28;20067;-56
2024/01/24 09:00:37;;;;;;;106.50;61.75;;;;;;;1.34;67.97;98817.72;10316181;28;19909;-57
2024/01/24 09:05:36;;;;;;;128.20;75.80;;;;;;;1.95;67.56;98868.66;10316893;28;20047;-57
2024/01/24 09:10:36;;;;;;;122.25;71.90;;;;;;;2.23;66.39;98887.94;10308011;28;20065;-56
2024/01/24 09:15:35;;;;;;;118.30;77.80;;;;;;;2.45;66.63;98908.69;10303812;28;20156;-56
2024/01/24 09:20:34;;;;;;;110.60;68.40;;;;;;;2.47;66.44;98901.97;10296805;28;20182;-57
2024/01/24 09:25:33;;;;;;;101.75;61.92;;;;;;;2.48;66.22;98874.66;10295826;28;20030;-56
2024/01/24 09:30:31;;;;;;;106.32;65.22;;;;;;;2.24;65.73;98808.63;10281926;28;20029;-56
2024/01/24 09:35:30;;;;;;;118.47;70.05;;;;;;;2.70;65.00;98833.91;10299370;28;20037;-56
2024/01/24 09:40:30;;;;;;;118.43;71.88;;;;;;;3.01;64.76;98825.94;10297677;28;20029;-56
2024/01/24 09:45:30;;;;;;;;;;;;;;;3.40;64.41;98856.78;10297796;28;20118;-57
2024/01/24 09:50:29;;;;;;;117.88;73.43;;;;;;;3.52;63.81;98833.38;10299012;28;20433;-57
2024/01/24 09:55:28;;;;;;;109.95;69.40;;;;;;;3.69;63.47;98834.09;10292558;28;20227;-56
2024/01/24 10:00:27;;;;;;;;;;;;;;;3.79;61.99;98841.38;10293965;28;20120;-56
2024/01/24 10:05:26;;;;;;;106.57;65.30;;;;;;;3.92;62.34;98829.97;10303923;28;20075;-56
2024/01/24 10:10:26;;;;;;;;;;;;;;;4.01;61.60;98817.50;10290541;28;20127;-57
2024/01/24 10:15:25;;;;;;;93.78;53.95;;;;;;;3.90;61.58;98787.91;10304908;28;20043;-57
2024/01/24 10:20:25;;;;;;;97.05;57.95;;;;;;;3.56;61.46;98688.94;10316356;28;20048;-57
2024/01/24 10:25:24;;;;;;;78.10;48.35;;;;;;;4.52;61.71;98811.84;10301372;28;20112;-56
2024/01/24 10:30:24;;;;;;;69.93;42.40;;;;;;;4.56;61.59;98775.16;10302846;28;20131;-56
2024/01/24 10:35:23;;;;;;;71.03;41.47;;;;;;;4.88;60.71;98781.56;10303412;28;20119;-57
2024/01/24 10:40:23;;;;;;;67.43;42.05;;;;;;;5.02;60.31;98764.09;10301803;28;20144;-57
2024/01/24 10:45:25;;;;;;;69.03;44.03;;;;;;;5.15;60.29;98754.25;10300416;28;20113;-57
2024/01/24 10:50:25;;;;;;;68.15;43.17;;;;;;;5.44;59.97;98774.22;10305268;28;20136;-57
2024/01/24 10:55:24;;;;;;;64.80;40.83;;;;;;;4.58;58.68;98539.63;10301275;28;20120;-56
2024/01/24 11:00:25;;;;;;;55.45;35.08;;;;;;;5.71;57.98;98691.00;10300621;28;20136;-56
2024/01/24 11:05:27;;;;;;;50.95;34.10;;;;;;;5.90;57.31;98715.66;10304566;28;20144;-56
2024/01/24 11:10:33;;;;;;;33.22;20.73;;;;;;;5.93;55.28;98697.72;10311928;28;20123;-56
2024/01/24 11:15:33;;;;;;;45.55;27.80;;;;;;;3.32;55.49;98227.06;10327066;28;20072;-57
2024/01/24 11:20:32;;;;;;;40.85;26.20;;;;;;;5.85;55.89;98617.63;10337674;28;20056;-57
2024/01/24 11:25:37;;;;;;;46.80;28.98;;;;;;;6.14;54.61;98659.78;10318058;28;20544;-56
2024/01/24 11:30:40;;;;;;;23.05;16.00;;;;;;;6.30;53.21;98704.94;10326908;28;20069;-57
2024/01/24 11:35:42;;;;;;;25.48;15.77;;;;;;;6.10;53.62;98654.47;10312999;28;20369;-56
2024/01/24 11:40:43;;;;;;;21.83;13.48;;;;;;;6.39;54.16;98684.59;10318564;28;20109;-57
2024/01/24 11:45:42;;;;;;;23.88;16.25;;;;;;;6.32;53.70;98631.09;10329340;28;20104;-57
2024/01/24 11:50:43;;;;;;;28.92;20.23;;;;;;;6.67;52.91;98658.75;10299844;28;20156;-57
2024/01/24 11:55:50;;;;;;;21.00;14.27;;;;;;;6.74;53.16;98633.19;10295150;28;20210;-57
2024/01/24 12:00:49;;;;;;;21.13;13.95;;;;;;;6.90;53.06;98631.03;10322133;28;20107;-56
2024/01/24 12:05:50;;;;;;;19.73;14.13;;;;;;;6.95;52.51;98620.00;10328384;28;20041;-56
2024/01/24 12:10:49;;;;;;;23.02;15.40;;;;;;;7.12;51.95;98609.25;10321123;28;20128;-57
2024/01/24 12:15:50;;;;;;;17.52;12.82;;;;;;;7.19;51.35;98582.75;10315042;28;20112;-57
2024/01/24 12:20:52;;;;;;;17.65;12.45;;;;;;;7.42;51.57;98588.56;10332262;28;20076;-57
2024/01/24 12:25:52;;;;;;;19.77;12.90;;;;;;;7.54;51.81;98564.72;10329038;28;20115;-57
2024/01/24 12:30:53;;;;;;;15.80;11.75;;;;;;;7.05;50.13;98479.19;10301427;28;20116;-57
2024/01/24 12:35:52;;;;;;;15.70;11.98;;;;;;;7.24;48.53;98509.78;10286028;28;20210;-57
2024/01/24 12:40:51;;;;;;;19.27;12.88;;;;;;;7.19;49.27;98500.16;10312708;28;20029;-56
2024/01/24 12:45:51;;;;;;;19.17;13.40;;;;;;;7.46;49.22;98510.31;10300139;28;20044;-56
2024/01/24 12:50:50;;;;;;;;;;;;;;;7.54;49.38;98526.84;10302397;28;20027;-56
2024/01/24 12:55:48;;;;;;;18.85;12.50;;;;;;;7.38;49.47;98529.88;10312812;28;19917;-56
2024/01/24 13:00:47;;;;;;;18.45;12.27;;;;;;;7.17;49.12;98535.38;10302305;28;20047;-56
2024/01/24 13:05:46;;;;;;;15.80;10.85;;;;;;;7.19;48.32;98544.03;10325011;28;20045;-56
2024/01/24 13:10:46;;;;;;;17.77;12.50;;;;;;;7.10;48.34;98542.13;10324789;28;20079;-56
2024/01/24 13:15:45;;;;;;;16.60;11.85;;;;;;;6.73;49.29;98487.00;10304634;28;20143;-56
2024/01/24 13:20:44;;;;;;;19.13;12.85;;;;;;;7.30;49.37;98539.16;10299463;28;20070;-56
2024/01/24 13:25:43;;;;;;;16.40;11.70;;;;;;;7.30;48.22;98539.16;10294068;28;20842;-56
2024/01/24 13:30:43;;;;;;;17.42;10.48;;;;;;;7.15;49.40;98498.38;10311882;28;20156;-56
2024/01/24 13:35:42;;;;;;;16.85;12.02;;;;;;;7.17;50.19;98466.59;10340066;28;20056;-56
2024/01/24 13:40:41;;;;;;;18.23;12.88;;;;;;;7.47;50.46;98506.03;10330478;28;20037;-56
2024/01/24 13:45:40;;;;;;;18.27;13.82;;;;;;;7.22;50.81;98464.13;10327204;28;20031;-55
2024/01/24 13:50:39;;;;;;;38.15;24.92;;;;;;;7.50;50.79;98501.81;10325062;28;20045;-56
2024/01/24 13:55:39;;;;;;;23.90;16.38;;;;;;;7.27;50.79;98447.03;10339880;28;20063;-56
2024/01/24 14:00:38;;;;;;;17.55;12.35;;;;;;;7.79;51.26;98524.84;10305853;28;20155;-56
2024/01/24 14:05:37;;;;;;;17.92;12.05;;;;;;;7.72;51.26;98497.13;10295007;28;20562;-56
2024/01/24 14:10:36;;;;;;;15.52;11.43;;;;;;;7.52;50.71;98469.16;10323916;28;20782;-56
2024/01/24 14:15:35;;;;;;;21.83;13.25;;;;;;;7.39;51.69;98464.50;10305703;28;20171;-55
2024/01/24 14:20:34;;;;;;;16.10;11.30;;;;;;;7.07;51.38;98461.16;10306800;28;20029;-56
2024/01/24 14:25:33;;;;;;;16.67;13.25;;;;;;;6.92;50.69;98443.59;10313868;28;20382;-56
2024/01/24 14:30:32;;;;;;;17.77;13.15;;;;;;;6.86;50.29;98427.97;10322540;28;20133;-56
2024/01/24 14:35:31;;;;;;;23.73;15.07;;;;;;;6.70;49.73;98386.34;10322034;28;20041;-56
2024/01/24 14:40:31;;;;;;;16.48;12.80;;;;;;;7.15;50.07;98480.31;10322293;28;20061;-56
2024/01/24 14:45:30;;;;;;;25.63;18.45;;;;;;;6.83;51.02;98449.41;10324459;28;20137;-57
2024/01/24 14:50:29;;;;;;;47.80;32.28;;;;;;;5.70;52.10;98295.28;10329681;28;20661;-56
2024/01/24 14:55:29;;;;;;;51.50;31.90;;;;;;;6.10;53.80;98435.47;10329243;28;20847;-56
2024/01/24 15:00:28;;;;;;;44.10;29.35;;;;;;;5.92;53.82;98440.97;10328881;28;20052;-57
2024/01/24 15:05:27;;;;;;;49.00;35.38;;;;;;;5.67;55.30;98421.34;10328032;28;20514;-56
2024/01/24 15:10:26;;;;;;;54.45;38.22;;;;;;;5.40;55.84;98411.13;10326917;28;20553;-56
2024/01/24 15:15:26;;;;;;;53.78;37.80;;;;;;;5.22;56.27;98426.88;10327859;28;20402;-56
2024/01/24 15:20:25;;;;;;;43.03;32.08;;;;;;;4.93;56.47;98403.66;10327298;28;20103;-56
2024/01/24 15:25:26;;;;;;;38.50;26.90;;;;;;;4.66;57.41;98391.66;10289388;28;20069;-57
2024/01/24 15:30:25;;;;;;;54.42;35.40;;;;;;;4.45;57.93;98388.38;10287844;28;20472;-56
2024/01/24 15:35:24;;;;;;;61.75;38.92;;;;;;;4.39;58.80;98393.34;10268919;28;20151;-56
2024/01/24 15:40:23;;;;;;;61.50;42.40;;;;;;;3.64;59.71;98253.84;10287583;28;20030;-56
2024/01/24 15:45:24;;;;;;;57.00;36.88;;;;;;;4.03;60.54;98368.13;10286673;28;20041;-56
2024/01/24 15:50:23;;;;;;;91.78;56.28;;;;;;;3.92;61.87;98369.47;10285057;28;20081;-57
2024/01/24 15:55:22;;;;;;;118.95;73.05;;;;;;;3.38;63.25;98370.09;10312098;28;20044;-56
2024/01/24 16:00:21;;;;;;;123.70;76.25;;;;;;;3.11;65.26;98368.22;10326912;28;20453;-57
2024/01/24 16:05:26;;;;;;;148.07;88.13;;;;;;;3.44;64.49;98381.41;10325709;28;20077;-56
2024/01/24 16:10:25;;;;;;;126.75;81.50;;;;;;;3.51;64.71;98356.00;10325658;28;20084;-57
2024/01/24 16:15:24;;;;;;;135.40;83.10;;;;;;;3.42;65.58;98361.66;10326365;28;20112;-57
2024/01/24 16:20:23;;;;;;;119.03;74.50;;;;;;;3.34;65.30;98351.13;10326158;28;20072;-56
2024/01/24 16:25:23;;;;;;;115.43;75.00;;;;;;;2.28;65.71;98187.38;10306865;28;20056;-56
2024/01/24 16:30:24;;;;;;;123.47;80.50;;;;;;;3.02;65.01;98335.38;10326213;28;20076;-57
2024/01/24 16:35:23;;;;;;;140.00;91.68;;;;;;;3.08;65.92;98344.16;10325486;28;20076;-57
2024/01/24 16:40:22;;;;;;;155.38;98.13;;;;;;;3.26;66.11;98367.03;10325431;28;20036;-57
2024/01/24 16:45:21;;;;;;;192.55;124.22;;;;;;;2.75;67.85;98321.53;10325674;28;20076;-57
2024/01/24 16:50:20;;;;;;;184.75;120.78;;;;;;;3.10;68.60;98381.00;10324629;28;20247;-57
2024/01/24 16:55:19;;;;;;;201.00;128.30;;;;;;;3.00;68.49;98336.16;10323275;28;20120;-57
2024/01/24 17:00:18;;;;;;;198.95;128.13;;;;;;;3.14;68.31;98344.38;10324215;28;20029;-56
2024/01/24 17:05:18;;;;;;;193.25;125.28;;;;;;;3.20;69.09;98345.47;10294096;28;20530;-57
2024/01/24 17:10:17;;;;;;;205.55;135.02;;;;;;;3.20;69.46;98347.19;10283319;28;20076;-57
2024/01/24 17:15:16;;;;;;;235.48;147.10;;;;;;;3.15;69.96;98315.38;10284120;28;20034;-56
2024/01/24 17:20:15;;;;;;;219.10;134.18;;;;;;;2.95;70.68;98333.41;10282995;28;20061;-57
2024/01/24 17:25:16;;;;;;;171.32;107.85;;;;;;;2.87;70.53;98326.28;10246004;28;20066;-57
2024/01/24 17:30:16;;;;;;;157.10;88.95;;;;;;;3.14;69.83;98377.72;10243198;28;20066;-57
2024/01/24 17:35:15;;;;;;;140.05;80.65;;;;;;;2.74;70.24;98276.22;10242252;28;20073;-57
2024/01/24 17:40:14;;;;;;;;;;;;;;;3.20;69.51;98337.78;10243039;28;20070;-57
2024/01/24 17:45:13;;;;;;;127.95;81.20;;;;;;;2.87;69.42;98303.19;10241555;28;19937;-57
2024/01/24 17:50:12;;;;;;;169.45;101.60;;;;;;;2.79;69.90;98295.19;10242890;28;20065;-57
2024/01/24 17:55:11;;;;;;;173.23;102.57;;;;;;;2.65;70.07;98304.03;10242268;28;20042;-57
2024/01/24 18:00:11;;;;;;;133.35;82.25;;;;;;;2.67;70.25;98310.09;10242650;28;20081;-57
2024/01/24 18:05:10;;;;;;;123.80;77.35;;;;;;;2.20;70.26;98219.47;10270826;28;20112;-57
2024/01/24 18:10:09;;;;;;;105.05;64.57;;;;;;;2.36;70.53;98227.81;10282273;28;20053;-57
2024/01/24 18:15:08;;;;;;;102.72;62.95;;;;;;;2.48;70.40;98231.66;10282541;28;20487;-56
2024/01/24 18:20:07;;;;;;;121.65;76.63;;;;;;;2.58;70.43;98224.41;10300453;28;20057;-57
2024/01/24 18:25:07;;;;;;;113.57;74.43;;;;;;;2.47;69.94;98210.31;10330348;28;20546;-57
2024/01/24 18:30:06;;;;;;;;;;;;;;;2.81;69.82;98267.94;10331471;28;20065;-57
2024/01/24 18:35:05;;;;;;;116.80;73.70;;;;;;;2.72;69.51;98244.53;10330321;28;19949;-56
2024/01/24 18:40:06;;;;;;;102.05;65.13;;;;;;;2.50;70.51;98220.66;10330140;28;20060;-57
2024/01/24 18:45:08;;;;;;;156.40;96.05;;;;;;;2.67;70.85;98234.09;10328551;28;20065;-57
2024/01/24 18:50:08;;;;;;;140.48;85.53;;;;;;;2.60;70.69;98196.25;10329416;28;20482;-57
2024/01/24 18:55:10;;;;;;;;;;;;;;;2.95;70.22;98238.56;10330324;28;20073;-57
2024/01/24 19:00:09;;;;;;;88.70;60.30;;;;;;;2.98;69.68;98230.09;10329129;28;19960;-57
2024/01/24 19:05:08;;;;;;;88.57;57.13;;;;;;;2.79;69.14;98185.00;10329094;28;20080;-57
2024/01/24 19:10:08;;;;;;;78.47;49.92;;;;;;;2.90;69.31;98191.38;10329142;28;20065;-56
2024/01/24 19:15:07;;;;;;;67.32;42.90;;;;;;;3.21;68.66;98224.16;10329086;28;20073;-56
2024/01/24 19:20:06;;;;;;;;;;;;;;;3.54;68.38;98269.75;10328868;28;20072;-57
2024/01/24 19:25:07;;;;;;;77.85;49.00;;;;;;;3.46;67.83;98255.78;10291889;28;19916;-56
2024/01/24 19:30:08;;;;;;;72.72;48.70;;;;;;;3.40;66.90;98227.31;10286941;28;20081;-56
2024/01/24 19:35:07;;;;;;;75.18;47.55;;;;;;;2.24;67.06;98042.13;10287165;28;20066;-57
2024/01/24 19:40:08;;;;;;;53.30;33.38;;;;;;;3.02;67.10;98152.50;10287788;28;20129;-57
2024/01/24 19:45:07;;;;;;;54.53;34.05;;;;;;;3.27;66.99;98187.56;10287235;28;20061;-57
2024/01/24 19:50:09;;;;;;;51.45;33.90;;;;;;;3.31;67.53;98209.94;10290584;28;20832;-57
2024/01/24 19:55:09;;;;;;;68.28;44.95;;;;;;;3.26;68.79;98182.38;10286936;28;20065;-57
2024/01/24 20:00:09;;;;;;;63.05;41.95;;;;;;;2.33;68.97;98070.63;10284275;28;20073;-56
2024/01/24 20:05:08;;;;;;;95.80;58.40;;;;;;;2.75;68.85;98173.78;10287057;28;20483;-56
2024/01/24 20:10:07;;;;;;;112.38;71.53;;;;;;;2.71;69.76;98188.97;10286059;28;20096;-56
2024/01/24 20:15:06;;;;;;;;;;;;;;;2.61;69.48;98192.03;10286310;28;20073;-56
2024/01/24 20:20:06;;;;;;;90.43;59.47;;;;;;;2.16;70.30;98119.50;10301800;28;19952;-57
2024/01/24 20:25:05;;;;;;;62.15;40.10;;;;;;;2.02;70.17;98099.31;10289523;28;20065;-56
2024/01/24 20:30:05;;;;;;;79.80;51.10;;;;;;;2.21;71.11;98157.19;10317167;28;20487;-56
2024/01/24 20:35:04;;;;;;;77.80;48.20;;;;;;;1.96;70.85;98117.88;10324545;28;20085;-56
2024/01/24 20:40:04;;;;;;;114.63;57.88;;;;;;;2.06;69.91;98125.06;10330984;28;20073;-57
2024/01/24 20:45:03;;;;;;;157.95;73.43;;;;;;;1.67;69.68;98053.66;10326133;28;20103;-57
2024/01/24 20:50:02;;;;;;;;;;;;;;;2.25;69.76;98156.50;10325630;28;20065;-56
2024/01/24 20:55:01;;;;;;;93.35;53.05;;;;;;;2.06;69.70;98127.63;10307189;28;19913;-57
2024/01/24 21:00:01;;;;;;;67.20;40.85;;;;;;;1.87;70.39;98091.94;10324690;28;20064;-57
2024/01/24 21:05:00;;;;;;;79.10;45.13;;;;;;;2.25;70.32;98143.72;10325192;28;20095;-57
2024/01/24 21:09:59;;;;;;;90.38;48.28;;;;;;;1.43;70.90;98009.22;10324251;28;20108;-57
2024/01/24 21:14:58;;;;;;;90.60;51.03;;;;;;;2.13;71.08;98121.06;10324289;28;20042;-57
2024/01/24 21:19:57;;;;;;;;;;;;;;;2.12;70.93;98120.22;10324221;28;20133;-56
2024/01/24 21:24:56;;;;;;;96.25;58.15;;;;;;;1.99;71.50;98082.16;10289405;28;19983;-57
2024/01/24 21:29:55;;;;;;;135.90;79.70;;;;;;;1.97;71.06;98068.41;10283069;28;20042;-56
2024/01/24 21:34:56;;;;;;;148.43;89.18;;;;;;;1.78;71.67;98040.41;10283792;28;20113;-56
2024/01/24 21:39:55;;;;;;;132.73;76.13;;;;;;;2.04;71.80;98087.44;10283119;28;20161;-57
2024/01/24 21:44:54;;;;;;;101.05;56.10;;;;;;;2.11;72.06;98108.22;10283332;28;20067;-56
2024/01/24 21:49:53;;;;;;;103.82;59.63;;;;;;;2.28;71.27;98110.56;10282608;28;20542;-56
2024/01/24 21:54:55;;;;;;;89.18;56.22;;;;;;;2.11;70.89;98068.94;10287103;28;20076;-57
2024/01/24 21:59:54;;;;;;;87.70;52.22;;;;;;;2.31;70.19;98085.06;10296344;28;20081;-56
2024/01/24 22:04:53;;;;;;;90.97;56.15;;;;;;;1.48;70.55;97938.66;10296497;28;20054;-56
2024/01/24 22:09:54;;;;;;;87.25;51.03;;;;;;;2.81;70.68;98120.16;10295567;28;20145;-57
2024/01/24 22:14:53;;;;;;;83.68;51.40;;;;;;;2.91;70.35;98131.63;10295853;28;20065;-57
2024/01/24 22:19:52;;;;;;;103.35;59.67;;;;;;;2.68;70.54;98073.56;10307952;28;20061;-55
2024/01/24 22:24:51;;;;;;;85.10;48.35;;;;;;;2.67;71.51;98071.81;10335106;28;20124;-56
2024/01/24 22:29:50;;;;;;;59.15;39.83;;;;;;;2.62;73.69;98106.66;10335791;28;20116;-57
2024/01/24 22:34:49;;;;;;;61.67;38.50;;;;;;;2.45;75.57;98119.72;10336656;28;20026;-57
2024/01/24 22:39:48;;;;;;;75.75;42.40;;;;;;;2.12;77.55;98099.72;10336492;28;20489;-57
2024/01/24 22:44:47;;;;;;;60.33;36.95;;;;;;;1.71;78.24;98029.06;10335891;28;20581;-56
2024/01/24 22:49:46;;;;;;;60.60;37.72;;;;;;;2.26;79.70;98102.81;10336055;28;20120;-57
2024/01/24 22:54:45;;;;;;;70.00;42.30;;;;;;;2.44;80.17;98107.75;10335954;28;20035;-57